Terminal Aerodrome Forecast
Issued by NWS

Home | Current Version | Previous Version | Text Only | Print | Product List | Glossary Off
Versions: 1 2 3 4 5 6 7 8 9 10 11 12 13

000
FTUS43 KGRB 302141 AAA
TAFAUW
TAF AMD
KAUW 302141Z 3022/0118 35009KT P6SM BKN030
     FM302300 35008KT P6SM SCT035
     FM010200 VRB03KT P6SM SKC
     FM011400 03006KT P6SM SCT040=

USA.gov is the U.S. government's official web portal to all federal, state and local government web resources and services.